Time;durP1;ratioP1;P1;durP2;ratioP2;P2;SDS_P1;SDS_P2;PMS_P1;PMS_P2;Temp;Humidity;BMP_temperature;BMP_pressure;BME280_temperature;BME280_humidity;BME280_pressure;Samples;Min_cycle;Max_cycle;Signal;HPM_P1;HPM_P2
2021/11/19 00:01:27;;;;;;;12.70;9.20;;;6.80;99.90;;;;;;5036159;28;20214;-72
2021/11/19 00:03:54;;;;;;;13.48;9.50;;;6.70;99.90;;;;;;5035605;28;20215;-73
2021/11/19 00:06:21;;;;;;;14.23;10.07;;;6.70;99.90;;;;;;5035481;28;20605;-72
2021/11/19 00:08:50;;;;;;;15.60;10.60;;;6.70;99.90;;;;;;5036046;28;20228;-74
2021/11/19 00:11:22;;;;;;;13.27;9.50;;;6.70;99.90;;;;;;5035569;28;20211;-73
2021/11/19 00:13:49;;;;;;;14.45;10.60;;;6.70;99.90;;;;;;5035628;28;20291;-72
2021/11/19 00:16:18;;;;;;;14.07;10.88;;;6.70;99.90;;;;;;5035216;28;20242;-73
2021/11/19 00:18:46;;;;;;;16.55;11.25;;;6.70;99.90;;;;;;5035630;28;20604;-72
2021/11/19 00:21:14;;;;;;;14.68;10.75;;;6.70;99.90;;;;;;5035679;28;20215;-73
2021/11/19 00:23:43;;;;;;;16.00;11.13;;;6.80;99.90;;;;;;5035121;28;20214;-73
2021/11/19 00:26:10;;;;;;;16.00;11.20;;;6.70;99.90;;;;;;5035002;28;20698;-73
2021/11/19 00:28:38;;;;;;;17.08;11.57;;;6.60;99.90;;;;;;5035387;28;20721;-72
2021/11/19 00:31:06;;;;;;;17.25;11.45;;;6.60;99.90;;;;;;5035864;28;20204;-72
2021/11/19 00:33:37;;;;;;;15.10;9.85;;;6.60;99.90;;;;;;5035139;28;20258;-72
2021/11/19 00:36:08;;;;;;;12.25;10.65;;;6.60;99.90;;;;;;5034972;28;20206;-72
2021/11/19 00:38:35;;;;;;;14.75;11.32;;;6.60;99.90;;;;;;5035596;28;20260;-72
2021/11/19 00:41:05;;;;;;;19.25;12.25;;;6.50;99.90;;;;;;5035098;28;20294;-70
2021/11/19 00:43:32;;;;;;;17.15;12.02;;;6.50;99.90;;;;;;5035104;28;20208;-72
2021/11/19 00:46:00;;;;;;;17.23;11.30;;;6.60;99.90;;;;;;5034574;28;20227;-72
2021/11/19 00:48:30;;;;;;;14.45;11.00;;;6.60;99.90;;;;;;5035534;28;20316;-71
2021/11/19 00:51:00;;;;;;;14.57;11.40;;;6.60;99.90;;;;;;5034947;28;20226;-72
2021/11/19 00:53:29;;;;;;;14.77;11.23;;;6.60;99.90;;;;;;5034981;28;20208;-71
2021/11/19 00:55:56;;;;;;;14.40;11.15;;;6.50;99.90;;;;;;5034569;28;20569;-72
2021/11/19 00:58:23;;;;;;;13.50;9.75;;;6.50;99.90;;;;;;5035256;28;20227;-72
2021/11/19 01:00:53;;;;;;;13.35;9.60;;;6.60;99.90;;;;;;5035131;28;20210;-71
2021/11/19 01:03:21;;;;;;;14.10;9.45;;;6.60;99.90;;;;;;5034933;28;20204;-73
2021/11/19 01:05:49;;;;;;;13.90;9.18;;;6.60;99.90;;;;;;5034962;28;20238;-73
2021/11/19 01:08:15;;;;;;;11.98;9.18;;;6.60;99.90;;;;;;5034752;28;20306;-72
2021/11/19 01:10:45;;;;;;;15.52;10.38;;;6.60;99.90;;;;;;5035060;28;20290;-71
2021/11/19 01:13:14;;;;;;;17.50;10.70;;;6.50;99.90;;;;;;5034730;28;20309;-71
2021/11/19 01:15:44;;;;;;;14.60;10.23;;;6.50;99.90;;;;;;5034140;28;20732;-73
2021/11/19 01:18:14;;;;;;;15.27;10.88;;;6.40;99.90;;;;;;5034262;28;20224;-71
2021/11/19 01:20:45;;;;;;;14.13;10.15;;;6.40;99.90;;;;;;5034460;28;20283;-70
2021/11/19 01:23:14;;;;;;;18.10;12.45;;;6.40;99.90;;;;;;5034114;28;20678;-70
2021/11/19 01:25:46;;;;;;;15.13;10.98;;;6.40;99.90;;;;;;5033724;28;20235;-70
2021/11/19 01:28:13;;;;;;;15.05;10.95;;;6.40;99.90;;;;;;5034102;28;20662;-70
2021/11/19 01:30:43;;;;;;;16.10;11.82;;;6.10;99.90;;;;;;5035050;28;20204;-73
2021/11/19 01:33:10;;;;;;;15.60;11.18;;;5.80;99.90;;;;;;5035133;28;20208;-71
2021/11/19 01:35:38;;;;;;;18.83;11.63;;;5.90;99.90;;;;;;5034522;28;20291;-72
2021/11/19 01:38:06;;;;;;;19.83;11.43;;;5.90;99.90;;;;;;5034510;28;20219;-70
2021/11/19 01:40:38;;;;;;;17.70;11.60;;;5.70;99.90;;;;;;5034944;28;20204;-72
2021/11/19 01:43:14;;;;;;;15.45;11.30;;;5.70;99.90;;;;;;5034606;28;20184;-72
2021/11/19 01:45:45;;;;;;;16.30;11.10;;;5.70;99.90;;;;;;5034176;28;20589;-74
2021/11/19 01:48:14;;;;;;;14.85;10.52;;;5.80;99.90;;;;;;5034537;28;20323;-72
2021/11/19 01:50:44;;;;;;;16.85;12.18;;;5.80;99.90;;;;;;5034580;28;20303;-71
2021/11/19 01:53:15;;;;;;;14.70;11.32;;;5.80;99.90;;;;;;5033561;28;20700;-72
2021/11/19 01:55:45;;;;;;;17.08;11.43;;;5.90;99.90;;;;;;5033629;28;20196;-70
2021/11/19 01:58:17;;;;;;;18.40;11.73;;;5.80;99.90;;;;;;5034519;28;20243;-70
2021/11/19 02:00:47;;;;;;;17.25;11.63;;;5.90;99.90;;;;;;5033892;28;20210;-70
2021/11/19 02:03:17;;;;;;;12.70;10.40;;;5.90;99.90;;;;;;5033773;28;20208;-73
2021/11/19 02:05:49;;;;;;;15.80;11.07;;;6.00;99.90;;;;;;5033385;28;20251;-73
2021/11/19 02:08:18;;;;;;;14.25;11.05;;;5.90;99.90;;;;;;5033519;28;20224;-71
2021/11/19 02:10:57;;;;;;;14.77;11.30;;;5.90;99.90;;;;;;5034067;28;20200;-71
2021/11/19 02:13:33;;;;;;;15.25;11.82;;;5.80;99.90;;;;;;5033661;28;20636;-72
2021/11/19 02:16:02;;;;;;;17.45;12.05;;;5.70;99.90;;;;;;5033023;28;20302;-71
2021/11/19 02:18:32;;;;;;;16.95;12.02;;;5.80;99.90;;;;;;5033214;28;20319;-70
2021/11/19 02:21:03;;;;;;;14.15;10.88;;;5.80;99.90;;;;;;5033703;28;20211;-73
2021/11/19 02:23:37;;;;;;;13.45;10.23;;;5.80;99.90;;;;;;5033766;28;20303;-73
2021/11/19 02:26:08;;;;;;;17.23;11.25;;;5.80;99.90;;;;;;5032953;28;20282;-72
2021/11/19 02:28:38;;;;;;;14.85;10.10;;;5.90;99.90;;;;;;5033345;28;20224;-71
2021/11/19 02:31:09;;;;;;;14.98;10.10;;;5.90;99.90;;;;;;5033874;28;20212;-72
2021/11/19 02:33:38;;;;;;;16.92;9.80;;;6.00;99.90;;;;;;5033207;28;20223;-72
2021/11/19 02:36:07;;;;;;;15.23;10.43;;;5.90;99.90;;;;;;5032866;28;20196;-71
2021/11/19 02:38:37;;;;;;;15.48;10.70;;;5.80;99.90;;;;;;5033018;28;20224;-71
2021/11/19 02:41:04;;;;;;;17.33;11.35;;;5.80;99.90;;;;;;5033235;28;20204;-70
2021/11/19 02:43:34;;;;;;;12.70;10.77;;;5.80;99.90;;;;;;5032720;28;20214;-69
2021/11/19 02:46:03;;;;;;;16.23;11.40;;;5.80;99.90;;;;;;5032743;28;20230;-71
2021/11/19 02:48:32;;;;;;;13.35;10.77;;;5.80;99.90;;;;;;5032706;28;20661;-70
2021/11/19 02:51:01;;;;;;;18.73;12.00;;;5.80;99.90;;;;;;5032826;28;20662;-69
2021/11/19 02:53:29;;;;;;;13.90;10.18;;;5.80;99.90;;;;;;5032570;28;20204;-70
2021/11/19 02:55:58;;;;;;;13.02;10.80;;;5.80;99.90;;;;;;5032231;28;20575;-70
2021/11/19 02:58:41;;;;;;;16.02;10.50;;;5.70;99.90;;;;;;5032879;28;20563;-70
2021/11/19 03:01:12;;;;;;;16.33;11.68;;;5.70;99.90;;;;;;5032910;28;20256;-70
2021/11/19 03:03:41;;;;;;;15.50;11.95;;;5.70;99.90;;;;;;5033506;28;20247;-70
2021/11/19 03:06:08;;;;;;;17.13;11.57;;;5.60;99.90;;;;;;5033225;28;20231;-71
2021/11/19 03:08:35;;;;;;;13.50;11.25;;;5.60;99.90;;;;;;5033346;28;20314;-71
2021/11/19 03:11:04;;;;;;;14.18;11.18;;;5.50;99.90;;;;;;5033630;28;20212;-71
2021/11/19 03:13:36;;;;;;;15.23;11.65;;;5.50;99.90;;;;;;5033594;28;20299;-71
2021/11/19 03:16:05;;;;;;;16.58;11.05;;;5.40;99.90;;;;;;5033037;28;20208;-71
2021/11/19 03:18:35;;;;;;;15.95;11.95;;;5.50;99.90;;;;;;5032573;28;20246;-71
2021/11/19 03:21:04;;;;;;;14.48;11.18;;;5.50;99.90;;;;;;5033503;28;20211;-71
2021/11/19 03:23:33;;;;;;;16.55;12.30;;;5.20;99.90;;;;;;5033515;28;20214;-71
2021/11/19 03:26:00;;;;;;;17.80;12.73;;;5.00;99.90;;;;;;5033152;28;20216;-71
2021/11/19 03:28:28;;;;;;;16.95;12.63;;;4.80;99.90;;;;;;5033400;28;20235;-71
2021/11/19 03:30:58;;;;;;;17.40;12.20;;;4.80;99.90;;;;;;5033232;28;20200;-71
2021/11/19 03:33:28;;;;;;;13.32;11.43;;;4.90;99.90;;;;;;5033407;28;20200;-71
2021/11/19 03:35:56;;;;;;;14.18;11.43;;;5.10;99.90;;;;;;5033285;28;20281;-71
2021/11/19 03:38:26;;;;;;;16.13;11.70;;;5.10;99.90;;;;;;5033359;28;20256;-71
2021/11/19 03:40:55;;;;;;;15.85;11.85;;;5.20;99.90;;;;;;5033260;28;20211;-71
2021/11/19 03:43:26;;;;;;;17.10;12.70;;;5.30;99.90;;;;;;5033276;28;20298;-71
2021/11/19 03:45:55;;;;;;;15.07;11.13;;;5.20;99.90;;;;;;5032879;28;20220;-72
2021/11/19 03:48:23;;;;;;;15.43;11.45;;;5.30;99.90;;;;;;5033261;28;20250;-71
2021/11/19 03:50:53;;;;;;;14.75;11.30;;;5.40;99.90;;;;;;5033184;28;20206;-71
2021/11/19 03:53:24;;;;;;;15.93;12.05;;;5.40;99.90;;;;;;5033591;28;20208;-71
2021/11/19 03:55:53;;;;;;;19.52;11.40;;;5.50;99.90;;;;;;5032896;28;20208;-71
2021/11/19 03:58:23;;;;;;;17.50;13.10;;;5.50;99.90;;;;;;5032979;28;20585;-71
2021/11/19 04:00:54;;;;;;;14.85;11.38;;;5.50;99.90;;;;;;5033247;28;20204;-71
2021/11/19 04:03:22;;;;;;;16.88;13.40;;;5.50;99.90;;;;;;5033631;28;20214;-71
2021/11/19 04:05:50;;;;;;;18.20;13.57;;;5.50;99.90;;;;;;5032751;28;20224;-71
2021/11/19 04:08:17;;;;;;;16.65;12.68;;;5.50;99.90;;;;;;5033077;28;20312;-71
2021/11/19 04:10:47;;;;;;;19.77;12.13;;;5.40;99.90;;;;;;5033075;28;20292;-72
2021/11/19 04:13:14;;;;;;;17.20;12.45;;;5.40;99.90;;;;;;5033087;28;20296;-71
2021/11/19 04:15:43;;;;;;;13.88;12.15;;;5.50;99.90;;;;;;5032719;28;20577;-71
2021/11/19 04:18:11;;;;;;;15.90;12.13;;;5.50;99.90;;;;;;5032703;28;20732;-71
2021/11/19 04:20:38;;;;;;;17.08;11.82;;;5.50;99.90;;;;;;5032759;28;20291;-71
2021/11/19 04:23:05;;;;;;;15.40;11.80;;;5.50;99.90;;;;;;5032938;28;20200;-71
2021/11/19 04:25:33;;;;;;;16.77;11.65;;;5.40;99.90;;;;;;5032414;28;20223;-71
2021/11/19 04:28:02;;;;;;;15.40;11.55;;;5.40;99.90;;;;;;5032904;28;20223;-71
2021/11/19 04:30:33;;;;;;;15.05;10.43;;;5.40;99.90;;;;;;5033945;28;20200;-71
2021/11/19 04:33:01;;;;;;;14.98;11.02;;;5.40;99.90;;;;;;5036550;28;20574;-71
2021/11/19 04:35:30;;;;;;;14.57;11.00;;;5.50;99.90;;;;;;5036141;28;20204;-71
2021/11/19 04:37:57;;;;;;;14.77;10.95;;;5.50;99.90;;;;;;5036249;28;20224;-71
2021/11/19 04:40:25;;;;;;;16.40;10.48;;;5.50;99.90;;;;;;5036380;28;20621;-71
2021/11/19 04:42:52;;;;;;;16.33;10.98;;;5.50;99.90;;;;;;5036456;28;20200;-71
2021/11/19 04:45:23;;;;;;;16.27;11.32;;;5.40;99.90;;;;;;5036239;28;20200;-71
2021/11/19 04:47:50;;;;;;;17.83;11.65;;;5.50;99.90;;;;;;5036579;28;20224;-71
2021/11/19 04:50:20;;;;;;;13.45;10.68;;;5.40;99.90;;;;;;5035957;28;20206;-72
2021/11/19 04:52:47;;;;;;;14.88;11.48;;;5.40;99.90;;;;;;5036220;28;20204;-71
2021/11/19 04:55:15;;;;;;;17.10;12.60;;;5.30;99.90;;;;;;5036004;28;20208;-71
2021/11/19 04:57:43;;;;;;;17.45;12.40;;;5.30;99.90;;;;;;5035713;28;20224;-71
2021/11/19 05:00:14;;;;;;;18.85;13.48;;;5.20;99.90;;;;;;5036102;28;20200;-72
2021/11/19 05:02:43;;;;;;;17.98;12.65;;;5.20;99.90;;;;;;5035973;28;20298;-71
2021/11/19 05:05:10;;;;;;;16.25;12.25;;;5.30;99.90;;;;;;5035629;28;20299;-71
2021/11/19 05:07:38;;;;;;;18.40;12.73;;;5.20;99.90;;;;;;5035725;28;20238;-71
2021/11/19 05:10:06;;;;;;;15.80;11.50;;;5.10;99.90;;;;;;5035594;28;20662;-71
2021/11/19 05:12:38;;;;;;;17.58;12.68;;;5.10;99.90;;;;;;5035737;28;20200;-71
2021/11/19 05:15:07;;;;;;;18.25;11.65;;;4.90;99.90;;;;;;5035642;28;20627;-72
2021/11/19 05:17:35;;;;;;;18.08;13.40;;;5.00;99.90;;;;;;5035609;28;20207;-71
2021/11/19 05:20:05;;;;;;;16.88;12.70;;;5.00;99.90;;;;;;5035691;28;20214;-71
2021/11/19 05:22:32;;;;;;;17.25;12.90;;;4.90;99.90;;;;;;5035721;28;20299;-71
2021/11/19 05:24:59;;;;;;;16.63;13.30;;;4.90;99.90;;;;;;5035375;28;20211;-71
2021/11/19 05:27:26;;;;;;;16.23;11.90;;;5.00;99.90;;;;;;5035279;28;20319;-71
2021/11/19 05:29:53;;;;;;;19.92;13.10;;;5.10;99.90;;;;;;5035520;28;20204;-71
2021/11/19 05:32:20;;;;;;;17.35;12.82;;;5.10;99.90;;;;;;5035187;28;20681;-71
2021/11/19 05:34:47;;;;;;;18.50;13.68;;;5.10;99.90;;;;;;5035200;28;20208;-71
2021/11/19 05:37:15;;;;;;;20.80;13.82;;;5.10;99.90;;;;;;5035437;28;20299;-71
2021/11/19 05:39:42;;;;;;;20.35;14.27;;;5.10;99.90;;;;;;5035419;28;20299;-71
2021/11/19 05:42:10;;;;;;;22.00;15.77;;;5.20;99.90;;;;;;5034557;28;20576;-71
2021/11/19 05:44:40;;;;;;;20.48;13.95;;;5.20;99.90;;;;;;5034882;28;20729;-71
2021/11/19 05:47:07;;;;;;;21.35;14.02;;;5.10;99.90;;;;;;5035044;28;20220;-71
2021/11/19 05:49:34;;;;;;;18.85;14.38;;;5.10;99.90;;;;;;5034713;28;20224;-71
2021/11/19 05:52:02;;;;;;;20.80;14.60;;;4.90;99.90;;;;;;5034957;28;20211;-71
2021/11/19 05:54:32;;;;;;;17.90;12.77;;;4.80;99.90;;;;;;5034762;28;20291;-71
2021/11/19 05:56:59;;;;;;;18.13;13.98;;;4.90;99.90;;;;;;5034864;28;20214;-72
2021/11/19 05:59:27;;;;;;;16.70;12.48;;;5.00;99.90;;;;;;5034836;28;20239;-72
2021/11/19 06:01:54;;;;;;;20.38;13.48;;;5.00;99.90;;;;;;5034743;28;20572;-71
2021/11/19 06:04:21;;;;;;;18.70;13.68;;;5.00;99.90;;;;;;5034550;28;20243;-70
2021/11/19 06:06:48;;;;;;;18.95;14.10;;;4.80;99.90;;;;;;5034592;28;20235;-71
2021/11/19 06:09:19;;;;;;;21.60;15.70;;;4.60;99.90;;;;;;5034726;28;20711;-71
2021/11/19 06:11:50;;;;;;;24.50;16.67;;;4.50;99.90;;;;;;5034597;28;20208;-72
2021/11/19 06:14:21;;;;;;;21.52;16.27;;;4.30;99.90;;;;;;5034380;28;20670;-71
2021/11/19 06:16:56;;;;;;;19.95;15.15;;;4.30;99.90;;;;;;5034384;28;20208;-71
2021/11/19 06:19:28;;;;;;;22.58;13.95;;;4.40;99.90;;;;;;5034522;28;20589;-71
2021/11/19 06:22:01;;;;;;;21.73;16.02;;;4.60;99.90;;;;;;5034537;28;20212;-72
2021/11/19 06:24:32;;;;;;;21.20;14.00;;;4.80;99.90;;;;;;5034410;28;20208;-72
2021/11/19 06:27:01;;;;;;;20.58;13.90;;;4.80;99.90;;;;;;5034183;28;20219;-71
2021/11/19 06:29:28;;;;;;;23.10;13.40;;;5.00;99.90;;;;;;5034380;28;20680;-72
2021/11/19 06:31:57;;;;;;;18.00;13.20;;;5.10;99.90;;;;;;5034135;28;20214;-72
2021/11/19 06:34:24;;;;;;;17.80;14.00;;;5.20;99.90;;;;;;5033991;28;20299;-70
2021/11/19 06:36:52;;;;;;;18.08;13.80;;;5.30;99.90;;;;;;5034181;28;20200;-71
2021/11/19 06:39:19;;;;;;;17.75;13.80;;;5.40;99.90;;;;;;5034106;28;20322;-71
2021/11/19 06:41:47;;;;;;;19.90;14.20;;;5.40;99.90;;;;;;5034040;28;20207;-71
2021/11/19 06:44:15;;;;;;;19.92;14.10;;;5.50;99.90;;;;;;5033906;28;20613;-71
2021/11/19 06:46:43;;;;;;;17.38;13.23;;;5.50;99.90;;;;;;5033753;28;20302;-71
2021/11/19 06:49:11;;;;;;;20.30;14.85;;;5.50;99.90;;;;;;5034548;28;20224;-71
2021/11/19 06:51:38;;;;;;;23.83;16.00;;;5.40;99.90;;;;;;5033711;28;20204;-71
2021/11/19 06:54:06;;;;;;;23.40;16.65;;;5.30;99.90;;;;;;5033732;28;20199;-71
2021/11/19 06:56:34;;;;;;;20.65;15.88;;;5.20;99.90;;;;;;5033689;28;20303;-71
2021/11/19 06:59:01;;;;;;;19.83;15.52;;;5.10;99.90;;;;;;5034039;28;20294;-72
2021/11/19 07:01:29;;;;;;;22.88;15.93;;;5.00;99.90;;;;;;5033898;28;20294;-72
2021/11/19 07:03:57;;;;;;;22.20;15.55;;;5.00;99.90;;;;;;5033625;28;20290;-71
2021/11/19 07:06:24;;;;;;;22.38;16.48;;;5.00;99.90;;;;;;5033991;28;20263;-71
2021/11/19 07:08:51;;;;;;;23.98;16.30;;;5.00;99.90;;;;;;5034722;28;20227;-71
2021/11/19 07:11:20;;;;;;;23.92;16.85;;;4.90;99.90;;;;;;5034692;28;20295;-71
2021/11/19 07:13:49;;;;;;;23.10;16.08;;;4.90;99.90;;;;;;5034246;28;20212;-71
2021/11/19 07:16:17;;;;;;;25.20;16.48;;;4.90;99.90;;;;;;5033546;28;20211;-72
2021/11/19 07:18:45;;;;;;;18.55;14.70;;;4.90;99.90;;;;;;5033725;28;20220;-72
2021/11/19 07:21:12;;;;;;;23.63;15.27;;;5.20;99.90;;;;;;5033501;28;20239;-71
2021/11/19 07:23:39;;;;;;;20.77;15.30;;;5.30;99.90;;;;;;5033518;28;20684;-71
2021/11/19 07:26:06;;;;;;;20.70;14.35;;;5.40;99.90;;;;;;5033420;28;20627;-72
2021/11/19 07:28:34;;;;;;;22.35;15.98;;;5.50;99.90;;;;;;5033302;28;20228;-71
2021/11/19 07:31:04;;;;;;;21.60;14.85;;;5.60;99.90;;;;;;5033641;28;20199;-72
2021/11/19 07:33:31;;;;;;;20.42;14.30;;;5.60;99.90;;;;;;5033394;28;20211;-71
2021/11/19 07:36:02;;;;;;;19.75;16.02;;;5.60;99.90;;;;;;5033364;28;20210;-71
2021/11/19 07:38:29;;;;;;;23.35;16.23;;;5.50;99.90;;;;;;5033452;28;20223;-71
2021/11/19 07:40:56;;;;;;;25.17;15.80;;;5.50;99.90;;;;;;5033185;28;20204;-71
2021/11/19 07:43:27;;;;;;;28.17;19.27;;;5.60;99.90;;;;;;5033354;28;20206;-71
2021/11/19 07:45:54;;;;;;;25.50;18.90;;;5.70;99.90;;;;;;5033240;28;20204;-72
2021/11/19 07:48:25;;;;;;;21.17;16.45;;;5.80;99.90;;;;;;5032904;28;20761;-72
2021/11/19 07:50:54;;;;;;;20.88;16.45;;;5.90;99.90;;;;;;5033423;28;20218;-71
2021/11/19 07:53:23;;;;;;;21.95;15.68;;;6.00;99.90;;;;;;5033278;28;20204;-72
2021/11/19 07:55:52;;;;;;;20.70;16.00;;;6.10;99.90;;;;;;5032918;28;20200;-72
2021/11/19 07:58:20;;;;;;;22.67;16.00;;;6.00;99.90;;;;;;5033270;28;20219;-71
2021/11/19 08:00:48;;;;;;;17.75;14.20;;;6.10;99.90;;;;;;5033618;28;20733;-71
2021/11/19 08:03:17;;;;;;;21.60;15.70;;;6.30;99.90;;;;;;5033154;28;20299;-71
2021/11/19 08:05:46;;;;;;;20.65;15.63;;;6.30;99.90;;;;;;5034575;28;20207;-71
2021/11/19 08:08:13;;;;;;;20.65;15.35;;;6.40;99.90;;;;;;5036884;28;20242;-71
2021/11/19 08:10:41;;;;;;;17.95;14.60;;;6.50;99.90;;;;;;5036939;28;20238;-72
2021/11/19 08:13:09;;;;;;;17.27;14.50;;;6.50;99.90;;;;;;5037100;28;20232;-71
2021/11/19 08:15:37;;;;;;;18.25;14.30;;;6.60;99.90;;;;;;5036607;28;20708;-71
2021/11/19 08:18:10;;;;;;;17.33;14.55;;;6.70;99.90;;;;;;5036771;28;20311;-72
2021/11/19 08:20:39;;;;;;;19.33;14.75;;;6.70;99.90;;;;;;5037088;28;20195;-71
2021/11/19 08:23:07;;;;;;;20.33;14.20;;;6.60;99.90;;;;;;5037054;28;20211;-71
2021/11/19 08:25:34;;;;;;;24.92;17.88;;;6.70;99.90;;;;;;5036785;28;20666;-72
2021/11/19 08:28:03;;;;;;;22.27;18.35;;;6.80;99.90;;;;;;5036563;28;20234;-72
2021/11/19 08:30:33;;;;;;;25.60;18.73;;;7.00;99.90;;;;;;5036825;28;20576;-71
2021/11/19 08:33:02;;;;;;;22.77;18.08;;;7.10;99.90;;;;;;5036679;28;20222;-72
2021/11/19 08:35:29;;;;;;;21.63;18.25;;;7.10;99.90;;;;;;5036166;28;20300;-72
2021/11/19 08:37:57;;;;;;;23.13;19.10;;;7.10;99.90;;;;;;5036439;28;20224;-71
2021/11/19 08:40:26;;;;;;;21.70;18.27;;;7.00;99.90;;;;;;5036471;28;20204;-71
2021/11/19 08:42:53;;;;;;;21.95;18.05;;;6.90;99.90;;;;;;5036380;28;20200;-72
2021/11/19 08:45:24;;;;;;;23.98;18.77;;;6.80;99.90;;;;;;5036020;28;20204;-71
2021/11/19 08:47:53;;;;;;;20.40;15.82;;;6.90;99.90;;;;;;5036145;28;20236;-71
2021/11/19 08:50:27;;;;;;;18.70;15.95;;;7.00;99.90;;;;;;5036342;28;20212;-72
2021/11/19 08:52:56;;;;;;;23.95;17.70;;;7.20;99.90;;;;;;5036238;28;20213;-71
2021/11/19 08:55:23;;;;;;;24.77;19.42;;;7.00;99.90;;;;;;5036041;28;20214;-71
2021/11/19 08:57:50;;;;;;;23.52;18.67;;;6.80;99.90;;;;;;5036009;28;20303;-72
2021/11/19 09:00:26;;;;;;;21.95;17.75;;;6.90;99.90;;;;;;5035839;28;20662;-72
2021/11/19 09:02:53;;;;;;;23.25;18.17;;;6.90;99.90;;;;;;5036015;28;20212;-72
2021/11/19 09:05:20;;;;;;;20.98;17.25;;;7.00;99.90;;;;;;5035566;28;20235;-71
2021/11/19 09:07:47;;;;;;;24.85;18.67;;;7.10;99.90;;;;;;5035785;28;20232;-71
2021/11/19 09:10:17;;;;;;;23.88;18.77;;;7.10;99.90;;;;;;5036017;28;20594;-72
2021/11/19 09:12:44;;;;;;;23.98;17.50;;;7.00;99.90;;;;;;5035863;28;20299;-72
2021/11/19 09:15:14;;;;;;;23.05;18.05;;;7.00;99.90;;;;;;5035500;28;20206;-72
2021/11/19 09:17:52;;;;;;;24.15;18.63;;;6.80;99.90;;;;;;5035798;28;20279;-72
2021/11/19 09:20:22;;;;;;;24.67;18.58;;;6.60;99.90;;;;;;5035851;28;20275;-71
2021/11/19 09:22:55;;;;;;;21.90;17.92;;;6.70;99.90;;;;;;5036139;28;20207;-72
2021/11/19 09:25:23;;;;;;;23.83;18.00;;;6.70;99.90;;;;;;5035336;28;20548;-71
2021/11/19 09:27:51;;;;;;;23.05;18.65;;;6.90;99.90;;;;;;5035595;28;20224;-71
2021/11/19 09:30:22;;;;;;;23.42;17.38;;;6.80;99.90;;;;;;5035581;28;20207;-72
2021/11/19 09:32:54;;;;;;;28.02;18.35;;;6.80;99.90;;;;;;5035620;28;20235;-72
2021/11/19 09:35:26;;;;;;;23.98;17.63;;;7.00;99.90;;;;;;5035512;28;20232;-72
2021/11/19 09:37:54;;;;;;;30.80;19.63;;;7.20;99.90;;;;;;5035659;28;20224;-71
2021/11/19 09:40:25;;;;;;;28.60;19.30;;;7.30;99.90;;;;;;5035060;28;20207;-72
2021/11/19 09:42:57;;;;;;;23.60;17.88;;;7.30;99.90;;;;;;5035312;28;20586;-71
2021/11/19 09:45:42;;;;;;;24.10;19.23;;;7.20;99.90;;;;;;5034786;28;20210;-71
2021/11/19 09:48:42;;;;;;;23.75;18.45;;;7.00;99.90;;;;;;5034950;28;20271;-72
2021/11/19 09:51:42;;;;;;;27.08;18.80;;;7.00;99.90;;;;;;5035184;28;20210;-72
2021/11/19 09:54:45;;;;;;;24.80;19.27;;;7.20;99.90;;;;;;5035171;28;20700;-72
2021/11/19 09:57:41;;;;;;;23.40;18.55;;;7.40;99.90;;;;;;5035000;28;20294;-71
2021/11/19 10:00:18;;;;;;;23.73;19.33;;;7.50;99.90;;;;;;5035538;28;20228;-72
2021/11/19 10:03:10;;;;;;;22.42;18.65;;;7.70;99.90;;;;;;5035560;28;20246;-72
2021/11/19 10:05:52;;;;;;;21.00;18.33;;;7.80;99.90;;;;;;5035704;28;20208;-71
2021/11/19 10:08:49;;;;;;;19.17;17.15;;;7.90;99.90;;;;;;5035508;28;20689;-71
2021/11/19 10:11:26;;;;;;;23.13;18.08;;;8.10;99.90;;;;;;5022335;28;20205;-71
2021/11/19 10:14:20;;;;;;;22.80;18.02;;;8.20;99.90;;;;;;5034714;28;20239;-71
2021/11/19 10:16:59;;;;;;;21.73;18.13;;;8.40;99.90;;;;;;5034449;28;20212;-71
2021/11/19 10:19:29;;;;;;;22.08;17.50;;;8.40;99.90;;;;;;5034527;28;20315;-72
2021/11/19 10:22:05;;;;;;;18.85;15.77;;;8.50;99.90;;;;;;5034552;28;20204;-71
2021/11/19 10:24:39;;;;;;;19.98;16.60;;;8.50;99.90;;;;;;5034167;28;20206;-71
2021/11/19 10:27:09;;;;;;;20.98;17.23;;;8.40;99.90;;;;;;5035386;28;20295;-72
2021/11/19 10:29:41;;;;;;;21.25;15.82;;;8.50;99.90;;;;;;5035401;28;20251;-71
2021/11/19 10:32:11;;;;;;;23.20;16.17;;;8.50;99.90;;;;;;5035337;28;20573;-72
2021/11/19 10:34:42;;;;;;;20.42;15.98;;;8.50;99.90;;;;;;5034434;28;20208;-72
2021/11/19 10:37:54;;;;;;;21.77;16.75;;;8.40;99.90;;;;;;5035362;28;20208;-72
2021/11/19 10:40:47;;;;;;;23.17;17.38;;;8.40;99.90;;;;;;5035199;28;20217;-72
2021/11/19 10:43:41;;;;;;;23.30;17.17;;;8.40;99.90;;;;;;5025083;28;20294;-72
2021/11/19 10:46:25;;;;;;;19.58;15.95;;;8.50;99.90;;;;;;5032309;28;20204;-71
2021/11/19 10:49:40;;;;;;;21.98;15.68;;;8.50;99.90;;;;;;5034864;28;20239;-71
2021/11/19 10:52:56;;;;;;;24.35;16.65;;;8.60;99.90;;;;;;5035043;28;20310;-71
2021/11/19 10:55:46;;;;;;;19.25;15.43;;;8.70;99.90;;;;;;5034991;28;20290;-71
2021/11/19 10:58:49;;;;;;;23.27;15.60;;;8.80;99.90;;;;;;5034791;28;20311;-72
2021/11/19 11:01:22;;;;;;;25.40;17.55;;;8.80;99.90;;;;;;5035010;28;20619;-72
2021/11/19 11:04:15;;;;;;;34.17;22.98;;;8.90;99.90;;;;;;5034825;28;20567;-72
2021/11/19 11:06:47;;;;;;;32.95;20.75;;;9.00;99.90;;;;;;5031999;28;20247;-71
2021/11/19 11:09:25;;;;;;;17.75;13.90;;;9.10;99.90;;;;;;5034876;28;20235;-72
2021/11/19 11:11:58;;;;;;;22.20;13.82;;;9.10;99.90;;;;;;5034586;28;20198;-71
2021/11/19 11:14:31;;;;;;;21.08;13.73;;;9.00;99.90;;;;;;5034094;28;20667;-72
2021/11/19 11:17:02;;;;;;;23.88;15.65;;;9.10;99.90;;;;;;5034255;28;20212;-71
2021/11/19 11:19:30;;;;;;;24.10;15.50;;;9.20;99.90;;;;;;5034193;28;20224;-71
2021/11/19 11:22:03;;;;;;;23.20;16.27;;;9.10;99.90;;;;;;5034360;28;20204;-71
2021/11/19 11:24:32;;;;;;;24.73;16.50;;;9.10;99.90;;;;;;5034517;28;20231;-73
2021/11/19 11:27:15;;;;;;;23.38;16.90;;;8.90;99.90;;;;;;5033826;28;20701;-71
2021/11/19 11:29:56;;;;;;;29.02;17.20;;;8.90;99.90;;;;;;5033876;28;20240;-71
2021/11/19 11:32:52;;;;;;;27.30;17.60;;;8.90;99.90;;;;;;5033467;28;20210;-71
2021/11/19 11:35:34;;;;;;;21.42;16.35;;;8.90;99.90;;;;;;5033297;28;20283;-71
2021/11/19 11:38:26;;;;;;;28.65;18.23;;;9.00;99.90;;;;;;5033342;28;20225;-71
2021/11/19 11:41:05;;;;;;;28.63;18.40;;;9.00;99.90;;;;;;5035658;28;20189;-71
2021/11/19 11:43:36;;;;;;;25.52;18.30;;;8.80;99.90;;;;;;5037556;28;20240;-71
2021/11/19 11:46:29;;;;;;;26.77;17.73;;;8.80;99.90;;;;;;5028242;28;20531;-72
2021/11/19 11:49:18;;;;;;;28.13;18.25;;;8.90;99.90;;;;;;5036920;28;20318;-71
2021/11/19 11:51:57;;;;;;;30.27;19.25;;;8.90;99.90;;;;;;5036262;28;20214;-71
2021/11/19 11:54:30;;;;;;;26.75;18.98;;;8.90;99.90;;;;;;5036402;28;20294;-71
2021/11/19 11:57:23;;;;;;;26.48;17.67;;;8.70;99.90;;;;;;5036072;28;20207;-72
2021/11/19 11:59:57;;;;;;;28.30;18.17;;;8.70;99.90;;;;;;5036133;28;20209;-71
2021/11/19 12:02:33;;;;;;;25.35;17.95;;;8.40;99.90;;;;;;5036380;28;20207;-71
2021/11/19 12:05:15;;;;;;;26.60;17.80;;;8.30;99.90;;;;;;5036355;28;20203;-71
2021/11/19 12:07:51;;;;;;;27.92;18.48;;;8.40;99.90;;;;;;5035663;28;20670;-71
2021/11/19 12:10:32;;;;;;;24.73;16.35;;;8.60;99.90;;;;;;5035898;28;20203;-72
2021/11/19 12:13:05;;;;;;;19.58;14.35;;;8.80;99.90;;;;;;5036544;28;20211;-71
2021/11/19 12:15:44;;;;;;;22.50;14.63;;;8.60;99.90;;;;;;5035560;28;20204;-71
2021/11/19 12:18:22;;;;;;;22.05;14.90;;;8.40;99.90;;;;;;5034069;28;20252;-71
2021/11/19 12:21:05;;;;;;;23.58;14.57;;;8.10;99.90;;;;;;5034555;28;20569;-71
2021/11/19 12:23:43;;;;;;;23.20;15.95;;;8.00;99.90;;;;;;5034728;28;20203;-71
2021/11/19 12:26:43;;;;;;;20.30;15.00;;;7.80;99.90;;;;;;5034055;28;20203;-71
2021/11/19 12:29:17;;;;;;;21.73;14.95;;;7.70;99.90;;;;;;5028756;28;20228;-71
2021/11/19 12:31:53;;;;;;;24.63;15.52;;;7.80;99.90;;;;;;5034700;28;20614;-71
2021/11/19 12:34:24;;;;;;;26.10;16.55;;;8.00;99.90;;;;;;5034647;28;20207;-71
2021/11/19 12:36:57;;;;;;;23.15;15.10;;;8.10;99.90;;;;;;5034017;28;20243;-71
2021/11/19 12:39:25;;;;;;;21.27;15.02;;;8.20;99.90;;;;;;5034551;28;20334;-72
2021/11/19 12:42:01;;;;;;;21.42;14.40;;;8.40;99.90;;;;;;5034477;28;20255;-71
2021/11/19 12:44:44;;;;;;;20.55;14.93;;;8.40;99.90;;;;;;5034884;28;20291;-72
2021/11/19 12:47:32;;;;;;;23.10;15.00;;;8.50;99.90;;;;;;5034174;28;20212;-72
2021/11/19 12:50:10;;;;;;;22.63;15.23;;;8.60;99.90;;;;;;5033459;28;20234;-72
2021/11/19 12:52:40;;;;;;;19.83;14.75;;;8.60;99.90;;;;;;5033227;28;20294;-73
2021/11/19 12:55:30;;;;;;;19.75;13.55;;;8.70;99.90;;;;;;5033727;28;20291;-73
2021/11/19 12:58:30;;;;;;;16.23;12.70;;;8.80;99.90;;;;;;5033310;28;20724;-72
2021/11/19 13:01:25;;;;;;;16.52;11.25;;;8.60;99.90;;;;;;5026854;28;20235;-73
2021/11/19 13:04:19;;;;;;;19.00;11.75;;;8.80;99.90;;;;;;5020490;28;20564;-72